Time;durP1;ratioP1;P1;durP2;ratioP2;P2;SDS_P1;SDS_P2;PMS_P1;PMS_P2;Temp;Humidity;BMP_temperature;BMP_pressure;BME280_temperature;BME280_humidity;BME280_pressure;Samples;Min_cycle;Max_cycle;Signal;HPM_P1;HPM_P2
2023/01/14 00:01:19;;;;;;;;;;;5.00;99.90;;;;;;4946362;29;20286;-80
2023/01/14 00:03:46;;;;;;;;;;;5.00;99.90;;;;;;4939320;28;20305;-80
2023/01/14 00:06:14;;;;;;;;;;;5.00;99.90;;;;;;4931690;29;19974;-80
2023/01/14 00:08:41;;;;;;;;;;;5.00;99.90;;;;;;4917294;29;19974;-80
2023/01/14 00:11:09;;;;;;;;;;;5.00;99.90;;;;;;4934587;29;20460;-80
2023/01/14 00:13:37;;;;;;;;;;;5.00;99.90;;;;;;4939052;29;20006;-80
2023/01/14 00:16:04;;;;;;;;;;;4.90;99.90;;;;;;4916816;29;19934;-80
2023/01/14 00:18:33;;;;;;;;;;;5.00;99.90;;;;;;4941667;29;20022;-79
2023/01/14 00:21:01;;;;;;;;;;;4.90;99.90;;;;;;4919253;28;20648;-80
2023/01/14 00:23:29;;;;;;;;;;;4.90;99.90;;;;;;4931784;29;19950;-80
2023/01/14 00:26:00;;;;;;;;;;;4.90;99.90;;;;;;4929182;29;19958;-80
2023/01/14 00:28:27;;;;;;;;;;;4.90;99.90;;;;;;4930498;29;19926;-80
2023/01/14 00:30:54;;;;;;;;;;;4.90;99.90;;;;;;4917118;29;20033;-80
2023/01/14 00:33:21;;;;;;;;;;;4.90;99.90;;;;;;4914693;28;20525;-79
2023/01/14 00:35:54;;;;;;;;;;;4.90;99.90;;;;;;4923036;29;20379;-80
2023/01/14 00:38:21;;;;;;;;;;;4.80;99.90;;;;;;4933701;29;19981;-80
2023/01/14 00:40:48;;;;;;;;;;;4.90;99.90;;;;;;4915533;29;20030;-79
2023/01/14 00:43:15;;;;;;;;;;;4.90;99.90;;;;;;4929867;29;19933;-80
2023/01/14 00:45:42;;;;;;;;;;;4.80;99.90;;;;;;4917610;29;20014;-80
2023/01/14 00:48:08;;;;;;;;;;;4.80;99.90;;;;;;4931794;29;20461;-80
2023/01/14 00:50:35;;;;;;;;;;;4.80;99.90;;;;;;4933338;29;19926;-80
2023/01/14 00:53:04;;;;;;;;;;;4.80;99.90;;;;;;4913814;29;19926;-80
2023/01/14 00:55:31;;;;;;;;;;;4.80;99.90;;;;;;4918343;29;20393;-80
2023/01/14 00:57:58;;;;;;;;;;;4.80;99.90;;;;;;4935834;29;19950;-79
2023/01/14 01:00:25;;;;;;;;;;;4.80;99.90;;;;;;4932396;29;19927;-80
2023/01/14 01:02:52;;;;;;;;;;;4.80;99.90;;;;;;4919538;29;19935;-79
2023/01/14 01:05:21;;;;;;;;;;;4.80;99.90;;;;;;4919629;29;20426;-80
2023/01/14 01:07:48;;;;;;;;;;;4.80;99.90;;;;;;4934582;29;20156;-79
2023/01/14 01:10:17;;;;;;;;;;;4.80;99.90;;;;;;4931025;28;19926;-80
2023/01/14 01:12:43;;;;;;;;;;;4.80;99.90;;;;;;4916403;29;19989;-79
2023/01/14 01:15:15;;;;;;;;;;;4.80;99.90;;;;;;4936640;29;20451;-80
2023/01/14 01:17:42;;;;;;;;;;;4.80;99.90;;;;;;4922446;29;19986;-80
2023/01/14 01:20:13;;;;;;;;;;;4.80;99.90;;;;;;4937430;29;19933;-80
2023/01/14 01:22:43;;;;;;;;;;;4.80;99.90;;;;;;4933068;29;19926;-80
2023/01/14 01:25:13;;;;;;;;;;;4.80;99.90;;;;;;4917514;29;19931;-80
2023/01/14 01:27:41;;;;;;;;;;;4.80;99.90;;;;;;4917662;29;19945;-79
2023/01/14 01:30:09;;;;;;;;;;;4.80;99.90;;;;;;4921075;29;19927;-80
2023/01/14 01:32:38;;;;;;;;;;;4.80;99.90;;;;;;4935566;29;19927;-80
2023/01/14 01:35:06;;;;;;;;;;;4.80;99.90;;;;;;4939301;29;19926;-79
2023/01/14 01:37:33;;;;;;;;;;;4.70;99.90;;;;;;4940132;28;20480;-80
2023/01/14 01:40:00;;;;;;;;;;;4.70;99.90;;;;;;4932935;29;19927;-80
2023/01/14 01:42:33;;;;;;;;;;;4.70;99.90;;;;;;4936753;28;19981;-80
2023/01/14 01:45:23;;;;;;;;;;;4.70;99.90;;;;;;4924987;29;19926;-79
2023/01/14 01:47:52;;;;;;;;;;;4.70;99.90;;;;;;4929551;29;19935;-79
2023/01/14 01:50:19;;;;;;;;;;;4.70;99.90;;;;;;4935365;29;19926;-80
2023/01/14 01:52:48;;;;;;;;;;;4.70;99.90;;;;;;4935611;29;19974;-79
2023/01/14 01:55:19;;;;;;;;;;;4.70;99.90;;;;;;4929173;29;19933;-79
2023/01/14 01:57:51;;;;;;;;;;;4.70;99.90;;;;;;4924599;29;19927;-79
2023/01/14 02:00:22;;;;;;;;;;;4.70;99.90;;;;;;4939384;29;19930;-79
2023/01/14 02:02:50;;;;;;;;;;;4.70;99.90;;;;;;4934112;29;20390;-79
2023/01/14 02:05:17;;;;;;;;;;;4.70;99.90;;;;;;4929608;29;19931;-80
2023/01/14 02:07:44;;;;;;;;;;;4.70;99.90;;;;;;4917664;29;19926;-79
2023/01/14 02:10:12;;;;;;;;;;;4.70;99.90;;;;;;4927119;29;20034;-79
2023/01/14 02:12:45;;;;;;;;;;;4.70;99.90;;;;;;4922559;28;19982;-80
2023/01/14 02:15:24;;;;;;;;;;;4.70;99.90;;;;;;4912069;29;20645;-80
2023/01/14 02:18:03;;;;;;;;;;;4.60;99.90;;;;;;4926998;29;20014;-79
2023/01/14 02:20:34;;;;;;;;;;;4.60;99.90;;;;;;4917566;29;19934;-80
2023/01/14 02:23:10;;;;;;;;;;;4.60;99.90;;;;;;4931742;29;19941;-79
2023/01/14 02:26:00;;;;;;;;;;;4.60;99.90;;;;;;4931786;29;19926;-80
2023/01/14 02:28:34;;;;;;;;;;;4.60;99.90;;;;;;4934441;29;19937;-79
2023/01/14 02:31:03;;;;;;;;;;;4.60;99.90;;;;;;4910356;29;20309;-79
2023/01/14 02:33:39;;;;;;;;;;;4.60;99.90;;;;;;4940613;29;20345;-80
2023/01/14 02:36:13;;;;;;;;;;;4.60;99.90;;;;;;4933922;29;19974;-80
2023/01/14 02:38:43;;;;;;;;;;;4.60;99.90;;;;;;4918345;29;19926;-80
2023/01/14 02:41:16;;;;;;;;;;;4.60;99.90;;;;;;4929610;29;19938;-79
2023/01/14 02:44:10;;;;;;;;;;;4.60;99.90;;;;;;4940852;29;19938;-79
2023/01/14 02:46:43;;;;;;;;;;;4.60;99.90;;;;;;4919184;29;19930;-80
2023/01/14 02:49:12;;;;;;;;;;;4.50;99.90;;;;;;4937844;29;20486;-79
2023/01/14 02:51:43;;;;;;;;;;;4.50;99.90;;;;;;4934196;28;19978;-79
2023/01/14 02:54:11;;;;;;;;;;;4.60;99.90;;;;;;4919889;29;20401;-79
2023/01/14 02:56:38;;;;;;;;;;;4.50;99.90;;;;;;4916073;29;19977;-79
2023/01/14 02:59:23;;;;;;;;;;;4.60;99.90;;;;;;4938305;28;20397;-79
2023/01/14 03:02:03;;;;;;;;;;;4.50;99.90;;;;;;4920497;29;19927;-79
2023/01/14 03:04:41;;;;;;;;;;;4.50;99.90;;;;;;4937489;29;19927;-79
2023/01/14 03:07:11;;;;;;;;;;;4.50;99.90;;;;;;4942299;28;19994;-79
2023/01/14 03:09:43;;;;;;;;;;;4.50;99.90;;;;;;4925829;29;19934;-80
2023/01/14 03:12:16;;;;;;;;;;;4.50;99.90;;;;;;4921214;29;19934;-79
2023/01/14 03:14:47;;;;;;;;;;;4.50;99.90;;;;;;4933112;29;19934;-79
2023/01/14 03:17:18;;;;;;;;;;;4.50;99.90;;;;;;4934177;29;20671;-80
2023/01/14 03:19:48;;;;;;;;;;;4.50;99.90;;;;;;4919468;29;19926;-79
2023/01/14 03:22:15;;;;;;;;;;;4.50;99.90;;;;;;4913850;29;19949;-80
2023/01/14 03:24:44;;;;;;;;;;;4.50;99.90;;;;;;4940855;29;19969;-80
2023/01/14 03:27:13;;;;;;;;;;;4.50;99.90;;;;;;4917731;29;19994;-79
2023/01/14 03:29:43;;;;;;;;;;;4.50;99.90;;;;;;4919994;29;19930;-80
2023/01/14 03:32:15;;;;;;;;;;;4.50;99.90;;;;;;4921855;29;19935;-79
2023/01/14 03:34:46;;;;;;;;;;;4.40;99.90;;;;;;4938216;29;20429;-80
2023/01/14 03:37:16;;;;;;;;;;;4.40;99.90;;;;;;4929978;29;19978;-79
2023/01/14 03:39:46;;;;;;;;;;;4.40;99.90;;;;;;4933689;29;20017;-79
2023/01/14 03:42:18;;;;;;;;;;;4.40;99.90;;;;;;4939947;29;19990;-80
2023/01/14 03:44:49;;;;;;;;;;;4.40;99.90;;;;;;4918644;29;19927;-79
2023/01/14 03:47:19;;;;;;;;;;;4.40;99.90;;;;;;4927770;29;19931;-79
2023/01/14 03:49:47;;;;;;;;;;;4.40;99.90;;;;;;4934450;29;19962;-79
2023/01/14 03:52:15;;;;;;;;;;;4.40;99.90;;;;;;4916914;29;19935;-80
2023/01/14 03:54:46;;;;;;;;;;;4.40;99.90;;;;;;4918039;29;19931;-79
2023/01/14 03:57:19;;;;;;;;;;;4.40;99.90;;;;;;4942539;28;20357;-80
2023/01/14 03:59:47;;;;;;;;;;;4.40;99.90;;;;;;4930509;29;19930;-79
2023/01/14 04:02:15;;;;;;;;;;;4.40;99.90;;;;;;4914399;29;20460;-79
2023/01/14 04:04:43;;;;;;;;;;;4.40;99.90;;;;;;4930236;29;20340;-79
2023/01/14 04:07:14;;;;;;;;;;;4.40;99.90;;;;;;4935704;29;19927;-79
2023/01/14 04:09:40;;;;;;;;;;;4.40;99.90;;;;;;4935121;29;20385;-79
2023/01/14 04:12:07;;;;;;;;;;;4.40;99.90;;;;;;4936337;28;20107;-79
2023/01/14 04:17:19;;;;;;;;;;;4.30;99.90;;;;;;4939686;29;19926;-79
2023/01/14 04:19:46;;;;;;;;;;;4.30;99.90;;;;;;4927773;28;22329;-79
2023/01/14 04:22:14;;;;;;;;;;;4.30;99.90;;;;;;4931963;29;20005;-79
2023/01/14 04:24:41;;;;;;;;;;;4.30;99.90;;;;;;4932172;29;19927;-80
2023/01/14 04:27:08;;;;;;;;;;;4.30;99.90;;;;;;4927608;29;19930;-79
2023/01/14 04:29:35;;;;;;;;;;;4.30;99.90;;;;;;4911642;29;19954;-79
2023/01/14 04:32:04;;;;;;;;;;;4.30;99.90;;;;;;4932507;29;20376;-80
2023/01/14 04:34:32;;;;;;;;;;;4.30;99.90;;;;;;4935087;29;19962;-79
2023/01/14 04:36:59;;;;;;;;;;;4.30;99.90;;;;;;4934970;29;19927;-80
2023/01/14 04:39:29;;;;;;;;;;;4.30;99.90;;;;;;4932148;29;19955;-80
2023/01/14 04:44:43;;;;;;;;;;;4.30;99.90;;;;;;4934087;29;19923;-79
2023/01/14 04:47:10;;;;;;;;;;;4.20;99.90;;;;;;4927786;29;19938;-79
2023/01/14 04:49:37;;;;;;;;;;;4.20;99.90;;;;;;4933300;28;20305;-79
2023/01/14 04:52:04;;;;;;;;;;;4.20;99.90;;;;;;4917850;29;19930;-79
2023/01/14 04:54:33;;;;;;;;;;;4.20;99.90;;;;;;4913837;29;19930;-80
2023/01/14 04:56:59;;;;;;;;;;;4.20;99.90;;;;;;4935189;29;19935;-79
2023/01/14 04:59:29;;;;;;;;;;;4.20;99.90;;;;;;4935336;29;19934;-79
2023/01/14 05:01:55;;;;;;;;;;;4.20;99.90;;;;;;4934550;29;19934;-79
2023/01/14 05:04:22;;;;;;;;;;;4.20;99.90;;;;;;4914250;29;20544;-80
2023/01/14 05:06:49;;;;;;;;;;;4.20;99.90;;;;;;4935395;29;19942;-79
2023/01/14 05:09:16;;;;;;;;;;;4.20;99.90;;;;;;4918157;29;19938;-80
2023/01/14 05:11:44;;;;;;;;;;;4.20;99.90;;;;;;4939248;29;19934;-79
2023/01/14 05:14:11;;;;;;;;;;;4.20;99.90;;;;;;4934248;29;19933;-79
2023/01/14 05:16:38;;;;;;;;;;;4.20;99.90;;;;;;4931501;29;19931;-79
2023/01/14 05:19:05;;;;;;;;;;;4.20;99.90;;;;;;4928657;29;20373;-79
2023/01/14 05:21:32;;;;;;;;;;;4.20;99.90;;;;;;4935127;29;19927;-80
2023/01/14 05:23:59;;;;;;;;;;;4.20;99.90;;;;;;4931403;29;19974;-79
2023/01/14 05:26:26;;;;;;;;;;;4.20;99.90;;;;;;4926146;29;19926;-79
2023/01/14 05:28:55;;;;;;;;;;;4.20;99.90;;;;;;4915112;29;19927;-79
2023/01/14 05:31:22;;;;;;;;;;;4.20;99.90;;;;;;4926784;29;19927;-79
2023/01/14 05:33:49;;;;;;;;;;;4.20;99.90;;;;;;4927858;29;19933;-79
2023/01/14 05:36:19;;;;;;;;;;;4.10;99.90;;;;;;4935638;29;20435;-79
2023/01/14 05:38:46;;;;;;;;;;;4.10;99.90;;;;;;4917550;29;20405;-79
2023/01/14 05:41:13;;;;;;;;;;;4.20;99.90;;;;;;4934162;29;20009;-80
2023/01/14 05:46:26;;;;;;;;;;;4.10;99.90;;;;;;4930588;29;19927;-79
2023/01/14 05:48:53;;;;;;;;;;;4.10;99.90;;;;;;4911613;29;19938;-79
2023/01/14 05:51:20;;;;;;;;;;;4.10;99.90;;;;;;4934612;29;19926;-80
2023/01/14 05:53:47;;;;;;;;;;;4.10;99.90;;;;;;4942055;29;19927;-79
2023/01/14 05:56:14;;;;;;;;;;;4.10;99.90;;;;;;4930170;29;19934;-79
2023/01/14 05:58:41;;;;;;;;;;;4.10;99.90;;;;;;4919094;29;19933;-79
2023/01/14 06:06:43;;;;;;;;;;;4.10;99.90;;;;;;4930582;29;20518;-80
2023/01/14 06:09:11;;;;;;;;;;;4.10;99.90;;;;;;4936476;29;19933;-80
2023/01/14 06:11:40;;;;;;;;;;;4.10;99.90;;;;;;4936025;29;19930;-80
2023/01/14 06:14:08;;;;;;;;;;;4.10;99.90;;;;;;4939759;29;20021;-79
2023/01/14 06:16:40;;;;;;;;;;;4.10;99.90;;;;;;4931604;29;20117;-79
2023/01/14 06:19:09;;;;;;;;;;;4.10;99.90;;;;;;4939605;29;19927;-79
2023/01/14 06:21:36;;;;;;;;;;;4.10;99.90;;;;;;4920254;29;19937;-79
2023/01/14 06:24:03;;;;;;;;;;;4.10;99.90;;;;;;4939436;29;19935;-80
2023/01/14 06:26:32;;;;;;;;;;;4.10;99.90;;;;;;4933776;29;19931;-79
2023/01/14 06:29:00;;;;;;;;;;;4.10;99.90;;;;;;4940206;29;20306;-79
2023/01/14 06:31:27;;;;;;;;;;;4.10;99.90;;;;;;4917588;29;20059;-79
2023/01/14 06:33:56;;;;;;;;;;;4.10;99.90;;;;;;4932414;29;20490;-80
2023/01/14 06:36:25;;;;;;;;;;;4.00;99.90;;;;;;4924728;29;19934;-79
2023/01/14 06:38:52;;;;;;;;;;;4.10;99.90;;;;;;4936858;29;20029;-79
2023/01/14 06:41:19;;;;;;;;;;;4.00;99.90;;;;;;4941262;29;19942;-79
2023/01/14 06:43:47;;;;;;;;;;;4.00;99.90;;;;;;4935220;29;19934;-79
2023/01/14 06:46:17;;;;;;;;;;;4.00;99.90;;;;;;4940308;29;19926;-80
2023/01/14 06:48:45;;;;;;;;;;;4.00;99.90;;;;;;4937916;29;19927;-79
2023/01/14 06:51:13;;;;;;;;;;;4.00;99.90;;;;;;4931527;29;20464;-79
2023/01/14 06:53:42;;;;;;;;;;;4.00;99.90;;;;;;4932893;29;19938;-80
2023/01/14 06:56:10;;;;;;;;;;;4.00;99.90;;;;;;4937428;29;19927;-80
2023/01/14 06:58:37;;;;;;;;;;;4.00;99.90;;;;;;4917542;29;20309;-80
2023/01/14 07:01:05;;;;;;;;;;;4.00;99.90;;;;;;4939211;29;19964;-79
2023/01/14 07:03:32;;;;;;;;;;;4.00;99.90;;;;;;4940190;29;19927;-79
2023/01/14 07:05:59;;;;;;;;;;;4.00;99.90;;;;;;4923984;28;19953;-79
2023/01/14 07:08:26;;;;;;;;;;;4.00;99.90;;;;;;4920054;29;19926;-80
2023/01/14 07:10:55;;;;;;;;;;;4.00;99.90;;;;;;4937375;29;19926;-80
2023/01/14 07:13:22;;;;;;;;;;;4.00;99.90;;;;;;4932912;29;19927;-79
2023/01/14 07:15:52;;;;;;;;;;;4.00;99.90;;;;;;4932809;29;19986;-79
2023/01/14 07:18:19;;;;;;;;;;;4.00;99.90;;;;;;4926121;29;20694;-79
2023/01/14 07:20:46;;;;;;;;;;;4.00;99.90;;;;;;4932258;29;19926;-79
2023/01/14 07:23:13;;;;;;;;;;;4.00;99.90;;;;;;4915939;29;19935;-79
2023/01/14 07:25:41;;;;;;;;;;;4.00;99.90;;;;;;4934352;29;19934;-79
2023/01/14 07:28:09;;;;;;;;;;;4.00;99.90;;;;;;4934776;29;19989;-79
2023/01/14 07:30:36;;;;;;;;;;;4.00;99.90;;;;;;4931109;29;19931;-79
2023/01/14 07:33:03;;;;;;;;;;;3.90;99.90;;;;;;4926683;29;20025;-80
2023/01/14 07:35:33;;;;;;;;;;;3.90;99.90;;;;;;4925702;29;20585;-81
2023/01/14 07:38:00;;;;;;;;;;;3.90;99.90;;;;;;5143249;23;19964;-80
2023/01/14 07:40:29;;;;;;;;;;;3.90;99.90;;;;;;4956798;28;19935;-81
2023/01/14 07:43:01;;;;;;;;;;;3.90;99.90;;;;;;4950846;28;19937;-80
2023/01/14 07:45:33;;;;;;;;;;;3.90;99.90;;;;;;4958668;28;19937;-80
2023/01/14 07:48:00;;;;;;;;;;;3.90;99.90;;;;;;4981529;28;20006;-80
2023/01/14 07:50:27;;;;;;;;;;;3.90;99.90;;;;;;4983482;28;19964;-80
2023/01/14 07:52:58;;;;;;;;;;;3.90;99.90;;;;;;4976998;28;19926;-81
2023/01/14 07:55:26;;;;;;;;;;;3.90;99.90;;;;;;4982499;28;19930;-80
2023/01/14 07:57:53;;;;;;;;;;;3.90;99.90;;;;;;4984566;28;19955;-81
2023/01/14 08:00:22;;;;;;;;;;;3.90;99.90;;;;;;5125806;23;19934;-81
2023/01/14 08:02:58;;;;;;;;;;;3.90;99.90;;;;;;4973286;28;19936;-82
2023/01/14 08:05:27;;;;;;;;;;;3.90;99.90;;;;;;4960221;28;19917;-81
2023/01/14 08:07:55;;;;;;;;;;;3.90;99.90;;;;;;4977760;28;19937;-81
2023/01/14 08:13:31;;;;;;;;;;;3.90;99.90;;;;;;5197544;23;20395;-80
2023/01/14 08:15:59;;;;;;;;;;;3.90;99.90;;;;;;4953055;28;19965;-80
2023/01/14 08:18:29;;;;;;;;;;;3.90;99.90;;;;;;4958307;28;19934;-80
2023/01/14 08:20:57;;;;;;;;;;;3.90;99.90;;;;;;4960937;28;19941;-81
2023/01/14 08:23:28;;;;;;;;;;;3.90;99.90;;;;;;4963874;28;20405;-80
2023/01/14 08:26:02;;;;;;;;;;;3.90;99.90;;;;;;4944004;28;19933;-80
2023/01/14 08:28:30;;;;;;;;;;;3.90;99.90;;;;;;4958699;28;19927;-80
2023/01/14 08:31:01;;;;;;;;;;;3.90;99.90;;;;;;4960505;28;20336;-80
2023/01/14 08:33:32;;;;;;;;;;;3.90;99.90;;;;;;4958774;28;19926;-80
2023/01/14 08:36:05;;;;;;;;;;;3.90;99.90;;;;;;4974211;28;19934;-82
2023/01/14 08:38:33;;;;;;;;;;;3.90;99.90;;;;;;4964625;28;19937;-80
2023/01/14 08:41:03;;;;;;;;;;;3.90;99.90;;;;;;4937672;28;20365;-80
2023/01/14 08:43:33;;;;;;;;;;;4.00;99.90;;;;;;4952244;28;19931;-80
2023/01/14 08:46:03;;;;;;;;;;;4.00;99.90;;;;;;4961114;28;19937;-80
2023/01/14 08:48:33;;;;;;;;;;;4.00;99.90;;;;;;4966364;28;19911;-80
2023/01/14 08:51:16;;;;;;;;;;;4.00;99.90;;;;;;4961354;28;19934;-80
2023/01/14 08:53:44;;;;;;;;;;;4.00;99.90;;;;;;4931097;28;19931;-80
2023/01/14 08:56:17;;;;;;;;;;;4.00;99.90;;;;;;4970086;28;19922;-81
2023/01/14 09:23:02;;;;;;;;;;;4.00;99.90;;;;;;5177353;23;19918;-81
2023/01/14 09:28:05;;;;;;;;;;;4.10;99.90;;;;;;5310824;23;19931;-81
2023/01/14 09:30:49;;;;;;;;;;;4.10;99.90;;;;;;5157514;23;20238;-80
2023/01/14 09:33:16;;;;;;;;;;;4.10;99.90;;;;;;4951912;28;19937;-79
2023/01/14 09:35:52;;;;;;;;;;;4.10;99.90;;;;;;4934762;29;19934;-80
2023/01/14 09:38:21;;;;;;;;;;;4.10;99.90;;;;;;4893049;29;19998;-80
2023/01/14 09:40:48;;;;;;;;;;;4.10;99.90;;;;;;4913986;29;19927;-80
2023/01/14 09:43:17;;;;;;;;;;;4.10;99.90;;;;;;4922272;29;19931;-80
2023/01/14 09:45:44;;;;;;;;;;;4.10;99.90;;;;;;4913559;29;19939;-80
2023/01/14 09:48:14;;;;;;;;;;;4.10;99.90;;;;;;4915241;29;19931;-80
2023/01/14 09:50:45;;;;;;;;;;;4.10;99.90;;;;;;4905246;29;19934;-80
2023/01/14 09:53:24;;;;;;;;;;;4.10;99.90;;;;;;4914812;29;20414;-80
2023/01/14 09:55:56;;;;;;;;;;;4.20;99.90;;;;;;4917027;29;19955;-79
2023/01/14 09:58:27;;;;;;;;;;;4.10;99.90;;;;;;4904432;29;19935;-80
2023/01/14 10:00:59;;;;;;;;;;;4.20;99.90;;;;;;4913658;29;19942;-79
2023/01/14 10:03:34;;;;;;;;;;;4.20;99.90;;;;;;4906888;29;19958;-81
2023/01/14 10:06:09;;;;;;;;;;;4.20;99.90;;;;;;4910622;29;20410;-80
2023/01/14 10:08:39;;;;;;;;;;;4.10;99.90;;;;;;4897352;29;19943;-80
2023/01/14 10:11:12;;;;;;;;;;;4.20;99.90;;;;;;4921067;29;19927;-80
2023/01/14 10:13:42;;;;;;;;;;;4.20;99.90;;;;;;4910470;29;19935;-80
2023/01/14 10:16:13;;;;;;;;;;;4.20;99.90;;;;;;4900226;29;19934;-80
2023/01/14 10:18:43;;;;;;;;;;;4.20;99.90;;;;;;4903400;29;20301;-80
2023/01/14 10:21:17;;;;;;;;;;;4.20;99.90;;;;;;4910469;29;19934;-79
2023/01/14 10:23:49;;;;;;;;;;;4.20;99.90;;;;;;4903882;29;19946;-79
2023/01/14 10:26:19;;;;;;;;;;;4.20;99.90;;;;;;4905008;29;19927;-80
2023/01/14 10:28:48;;;;;;;;;;;4.20;99.90;;;;;;4904092;29;19938;-79
2023/01/14 10:31:17;;;;;;;;;;;4.30;99.90;;;;;;4908024;29;19934;-79
2023/01/14 10:33:45;;;;;;;;;;;4.30;99.90;;;;;;4905114;29;19986;-79
2023/01/14 10:36:18;;;;;;;;;;;4.30;99.90;;;;;;4904329;29;20053;-79
2023/01/14 10:38:52;;;;;;;;;;;4.30;99.90;;;;;;4908304;29;20383;-81
2023/01/14 10:41:48;;;;;;;;;;;4.30;99.90;;;;;;4914245;29;19967;-80
2023/01/14 10:44:14;;;;;;;;;;;4.30;99.90;;;;;;4897154;29;20030;-80
2023/01/14 10:46:42;;;;;;;;;;;4.30;99.90;;;;;;4904147;29;19950;-80
2023/01/14 10:49:15;;;;;;;;;;;4.30;99.90;;;;;;4920065;29;19927;-80
2023/01/14 10:51:47;;;;;;;;;;;4.30;99.90;;;;;;4914417;29;19974;-79
2023/01/14 10:54:15;;;;;;;;;;;4.40;99.90;;;;;;4908548;29;19935;-79
2023/01/14 10:56:46;;;;;;;;;;;4.40;99.90;;;;;;4910347;29;19935;-80
2023/01/14 10:59:27;;;;;;;;;;;4.40;99.90;;;;;;4931529;29;19926;-79
2023/01/14 11:02:03;;;;;;;;;;;4.40;99.90;;;;;;4920727;29;20058;-81
2023/01/14 11:04:31;;;;;;;;;;;4.40;99.90;;;;;;4897154;29;19975;-79
2023/01/14 11:06:58;;;;;;;;;;;4.40;99.90;;;;;;4893922;29;19967;-80
2023/01/14 11:09:27;;;;;;;;;;;4.40;99.90;;;;;;4904679;29;20026;-80
2023/01/14 11:14:47;;;;;;;;;;;4.50;99.90;;;;;;5058903;23;19997;-80
2023/01/14 11:17:22;;;;;;;;;;;4.50;99.90;;;;;;4961455;28;20134;-80
2023/01/14 11:20:15;;;;;;;;;;;4.50;99.90;;;;;;4957876;28;20020;-80
2023/01/14 11:22:42;;;;;;;;;;;4.50;99.90;;;;;;4943102;28;19931;-79
2023/01/14 11:27:51;;;;;;;;;;;4.60;99.90;;;;;;5020283;23;20303;-78
2023/01/14 11:30:21;;;;;;;;;;;4.60;99.90;;;;;;4950602;28;21508;-79
2023/01/14 11:32:50;;;;;;;;;;;4.70;99.90;;;;;;4941058;28;19910;-80
2023/01/14 11:35:19;;;;;;;;;;;4.70;99.90;;;;;;4962519;28;19977;-80
2023/01/14 11:37:48;;;;;;;;;;;4.70;99.90;;;;;;4921030;28;20357;-79
2023/01/14 11:40:21;;;;;;;;;;;4.70;99.90;;;;;;4943956;28;19934;-80
2023/01/14 11:42:50;;;;;;;;;;;4.70;99.90;;;;;;4955411;28;20404;-80
2023/01/14 11:45:21;;;;;;;;;;;4.70;99.90;;;;;;4954139;28;19926;-79
2023/01/14 11:48:03;;;;;;;;;;;4.80;99.90;;;;;;5147598;23;20294;-80
2023/01/14 11:50:32;;;;;;;;;;;4.80;99.90;;;;;;4945482;28;20595;-79
2023/01/14 11:53:03;;;;;;;;;;;4.80;99.90;;;;;;4918717;28;19926;-79
2023/01/14 11:55:32;;;;;;;;;;;4.80;99.90;;;;;;4928696;28;20239;-79
2023/01/14 11:58:02;;;;;;;;;;;4.80;99.90;;;;;;4921699;28;19931;-80
2023/01/14 12:00:30;;;;;;;;;;;4.80;99.90;;;;;;4928647;28;20313;-80
2023/01/14 12:03:02;;;;;;;;;;;4.80;99.90;;;;;;4921381;29;19931;-80
2023/01/14 12:05:32;;;;;;;;;;;4.80;99.90;;;;;;4916630;29;19934;-80
2023/01/14 12:08:05;;;;;;;;;;;4.80;99.90;;;;;;4915414;29;20042;-80
2023/01/14 12:10:34;;;;;;;;;;;4.80;99.90;;;;;;4901765;29;20053;-80
2023/01/14 12:18:44;;;;;;;;;;;4.90;99.90;;;;;;4916230;29;19930;-80
2023/01/14 12:21:13;;;;;;;;;;;4.90;99.90;;;;;;4919230;29;19935;-80
2023/01/14 12:23:44;;;;;;;;;;;4.90;99.90;;;;;;4919294;29;20458;-80
2023/01/14 12:26:15;;;;;;;;;;;4.90;99.90;;;;;;4918890;29;20036;-81
2023/01/14 12:28:48;;;;;;;;;;;5.00;99.90;;;;;;4919792;29;19994;-80
2023/01/14 12:31:20;;;;;;;;;;;4.90;99.90;;;;;;4925871;29;20258;-81
2023/01/14 12:33:50;;;;;;;;;;;5.00;99.90;;;;;;4920344;29;19931;-80
2023/01/14 12:36:20;;;;;;;;;;;5.00;99.90;;;;;;4917617;29;19947;-80
2023/01/14 12:47:12;;;;;;;;;;;5.10;99.90;;;;;;4921941;29;20006;-80
2023/01/14 12:49:43;;;;;;;;;;;5.10;99.90;;;;;;4903329;29;19946;-80
2023/01/14 12:52:11;;;;;;;;;;;5.20;99.90;;;;;;4904105;29;19930;-80
2023/01/14 12:54:40;;;;;;;;;;;5.20;99.90;;;;;;4927239;28;19926;-80
2023/01/14 12:57:07;;;;;;;;;;;5.20;99.90;;;;;;5053153;23;19925;-80
2023/01/14 12:59:43;;;;;;;;;;;5.20;99.90;;;;;;4945567;28;19938;-81
2023/01/14 13:02:21;;;;;;;;;;;5.30;99.90;;;;;;4943277;28;21424;-81
2023/01/14 13:04:54;;;;;;;;;;;5.30;99.90;;;;;;4945413;28;19930;-81
2023/01/14 13:07:28;;;;;;;;;;;5.30;99.90;;;;;;4928004;29;19970;-81
2023/01/14 13:10:02;;;;;;;;;;;5.30;99.90;;;;;;4952982;28;19931;-81
2023/01/14 13:12:33;;;;;;;;;;;5.30;99.90;;;;;;4955149;28;20021;-81
2023/01/14 13:15:08;;;;;;;;;;;5.30;99.90;;;;;;4954224;28;19958;-80
2023/01/14 13:20:45;;;;;;;;;;;5.40;99.90;;;;;;4946736;28;19952;-81
2023/01/14 13:23:41;;;;;;;;;;;5.40;99.90;;;;;;4959280;28;20408;-81
2023/01/14 13:26:52;;;;;;;;;;;5.40;99.90;;;;;;4957605;28;19949;-81
2023/01/14 13:30:01;;;;;;;;;;;5.40;99.90;;;;;;4942657;29;19930;-82
2023/01/14 13:32:55;;;;;;;;;;;5.50;99.90;;;;;;4928389;29;19933;-81
2023/01/14 13:35:35;;;;;;;;;;;5.50;99.90;;;;;;4956530;28;19930;-81
2023/01/14 13:38:17;;;;;;;;;;;5.50;99.90;;;;;;4966335;28;19954;-81
2023/01/14 13:41:06;;;;;;;;;;;5.50;99.90;;;;;;4947692;28;19933;-81
2023/01/14 13:43:37;;;;;;;;;;;5.40;99.90;;;;;;4965407;28;19926;-81
2023/01/14 13:46:08;;;;;;;;;;;5.50;99.90;;;;;;4962221;28;19926;-80
2023/01/14 14:15:44;;;;;;;;;;;;;;;;;;5253941;23;19930;-80
2023/01/14 14:18:23;;;;;;;;;;;5.70;99.90;;;;;;4959641;28;19931;-81
2023/01/14 14:20:57;;;;;;;;;;;5.80;99.90;;;;;;4948097;29;19934;-81
2023/01/14 15:19:46;;;;;;;;;;;6.10;99.90;;;;;;5234092;23;19965;-81
2023/01/14 15:22:46;;;;;;;;;;;6.10;99.90;;;;;;4978986;28;19957;-81
2023/01/14 15:52:42;;;;;;;;;;;6.40;99.90;;;;;;5153490;23;19934;-80
2023/01/14 15:55:21;;;;;;;;;;;6.40;99.90;;;;;;4978147;28;19989;-81
2023/01/14 17:51:34;;;;;;;;;;;6.30;99.90;;;;;;5319916;23;19999;-79
2023/01/14 17:54:01;;;;;;;;;;;6.30;99.90;;;;;;5349860;23;19933;-79
2023/01/14 17:56:31;;;;;;;;;;;6.30;99.90;;;;;;5036722;23;20347;-80
2023/01/14 17:58:58;;;;;;;;;;;6.30;99.90;;;;;;4965808;23;19934;-82
2023/01/14 18:04:00;;;;;;;;;;;6.30;99.90;;;;;;5090274;23;19934;-81
2023/01/14 18:12:01;;;;;;;;;;;6.20;99.90;;;;;;5064959;23;19973;-79
2023/01/14 18:35:59;;;;;;;;;;;6.20;99.90;;;;;;5344413;23;19910;-81
2023/01/14 18:49:10;;;;;;;;;;;6.10;99.90;;;;;;5394150;23;19930;-81
2023/01/14 18:51:50;;;;;;;;;;;6.10;99.90;;;;;;5109042;23;20161;-81
2023/01/14 18:54:27;;;;;;;;;;;6.10;99.90;;;;;;5113340;23;19973;-81
2023/01/14 19:05:32;;;;;;;;;;;6.10;99.90;;;;;;5471811;23;19985;-80
2023/01/14 19:45:43;;;;;;;;;;;6.10;99.90;;;;;;5091517;27;2203218;-80
2023/01/14 19:48:17;;;;;;;;;;;6.10;99.90;;;;;;5145920;27;19944;-81
2023/01/14 19:50:50;;;;;;;;;;;6.10;99.90;;;;;;5143955;27;19923;-80
2023/01/14 19:53:17;;;;;;;;;;;6.10;99.90;;;;;;5139746;27;19931;-79
2023/01/14 19:55:51;;;;;;;;;;;6.10;99.90;;;;;;5138891;27;19927;-80
2023/01/14 19:58:19;;;;;;;;;;;6.10;99.90;;;;;;5153792;27;19943;-81
2023/01/14 20:14:12;;;;;;;;;;;6.10;99.90;;;;;;5784053;23;19940;-81
2023/01/14 20:16:39;;;;;;;;;;;6.10;99.90;;;;;;5044803;28;19921;-81
2023/01/14 20:31:39;;;;;;;;;;;6.10;99.90;;;;;;5072657;22;19932;-82
2023/01/14 20:34:11;;;;;;;;;;;6.10;99.90;;;;;;5043159;28;19925;-81
2023/01/14 20:36:44;;;;;;;;;;;6.10;99.90;;;;;;5027437;28;19926;-80
2023/01/14 20:39:22;;;;;;;;;;;6.10;99.90;;;;;;5006027;28;19969;-80
2023/01/14 20:47:18;;;;;;;;;;;6.10;99.90;;;;;;5006819;28;19916;-80
2023/01/14 20:49:47;;;;;;;;;;;6.10;99.90;;;;;;5009049;28;19997;-80
2023/01/14 20:52:14;;;;;;;;;;;6.10;99.90;;;;;;5001316;28;19926;-78
2023/01/14 20:54:44;;;;;;;;;;;6.10;99.90;;;;;;5003358;28;19910;-80
2023/01/14 20:57:16;;;;;;;;;;;6.10;99.90;;;;;;4999474;28;19961;-79
2023/01/14 20:59:44;;;;;;;;;;;6.10;99.90;;;;;;4992112;28;20033;-79
2023/01/14 21:02:13;;;;;;;;;;;6.20;99.90;;;;;;4980558;28;19925;-79
2023/01/14 21:04:45;;;;;;;;;;;6.20;99.90;;;;;;4987518;28;20451;-80
2023/01/14 21:07:16;;;;;;;;;;;6.20;99.90;;;;;;4991298;28;19936;-80
2023/01/14 21:09:46;;;;;;;;;;;6.20;99.90;;;;;;4987052;28;19930;-79
2023/01/14 21:12:15;;;;;;;;;;;6.20;99.90;;;;;;4986631;28;19990;-80
2023/01/14 21:23:08;;;;;;;;;;;6.30;99.90;;;;;;4990115;28;19930;-80
2023/01/14 21:25:38;;;;;;;;;;;6.30;99.90;;;;;;5003123;28;19926;-80
2023/01/14 21:28:07;;;;;;;;;;;6.30;99.90;;;;;;4990410;28;20020;-79
2023/01/14 21:30:36;;;;;;;;;;;6.30;99.90;;;;;;4981555;28;19934;-80
2023/01/14 21:33:06;;;;;;;;;;;6.30;99.90;;;;;;4987494;28;20297;-79
2023/01/14 21:35:34;;;;;;;;;;;6.30;99.90;;;;;;4982994;28;19965;-79
2023/01/14 21:38:03;;;;;;;;;;;6.40;99.90;;;;;;4987784;28;20024;-78
2023/01/14 21:40:33;;;;;;;;;;;6.40;99.90;;;;;;4979325;28;19980;-79
2023/01/14 21:45:46;;;;;;;;;;;6.40;99.90;;;;;;4986021;28;19926;-79
2023/01/14 21:48:21;;;;;;;;;;;6.40;99.90;;;;;;4995662;28;19934;-80
2023/01/14 21:51:00;;;;;;;;;;;6.40;99.90;;;;;;4989368;28;20316;-80